RJER(METAR)
10/20 15:00
RJER 200600Z 26005KT CAVOK 11/M00 Q1023 RMK A3023=
戻る
トップページへ戻る
IMOC Co,.Ltd.